createdAt,value
2022-08-28T00:02:00.131Z,1
2022-08-28T00:12:00.247Z,1
2022-08-28T00:22:00.135Z,1
2022-08-28T00:32:00.253Z,1
2022-08-28T00:42:00.145Z,1
2022-08-28T00:52:00.248Z,1
2022-08-28T01:02:00.405Z,1
2022-08-28T01:12:00.230Z,1
2022-08-28T01:22:00.331Z,1
2022-08-28T01:32:00.235Z,1
2022-08-28T01:42:00.329Z,1
2022-08-28T01:52:00.239Z,1
2022-08-28T02:02:00.350Z,1
2022-08-28T02:12:00.412Z,1
2022-08-28T02:22:00.314Z,1
2022-08-28T02:32:00.418Z,1
2022-08-28T02:42:00.307Z,1
2022-08-28T02:52:00.420Z,1
2022-08-28T03:02:00.311Z,1
2022-08-28T03:12:00.417Z,1
2022-08-28T03:22:00.503Z,1
2022-08-28T03:32:00.417Z,1
2022-08-28T03:42:00.507Z,1
2022-08-28T03:52:00.405Z,1
2022-08-28T04:02:00.497Z,1
2022-08-28T04:12:00.397Z,1
2022-08-28T04:22:00.486Z,1
2022-08-28T04:32:00.440Z,1
2022-08-28T04:42:00.504Z,6
2022-08-28T04:52:00.602Z,16
2022-08-28T05:02:00.532Z,39
2022-08-28T05:12:00.580Z,61
2022-08-28T05:22:00.492Z,77
2022-08-28T05:32:00.678Z,85
2022-08-28T05:42:00.498Z,89
2022-08-28T05:52:00.587Z,91
2022-08-28T06:02:04.087Z,94
2022-08-28T06:12:00.576Z,94
2022-08-28T06:22:00.680Z,95
2022-08-28T06:32:00.673Z,96
2022-08-28T06:42:00.669Z,96
2022-08-28T06:52:00.571Z,97
2022-08-28T07:02:00.783Z,98
2022-08-28T07:12:00.561Z,97
2022-08-28T07:22:00.665Z,97
2022-08-28T07:32:00.562Z,97
2022-08-28T07:42:00.668Z,97
2022-08-28T07:52:00.769Z,97
2022-08-28T08:02:00.658Z,97
2022-08-28T08:12:00.757Z,97
2022-08-28T08:22:00.652Z,97
2022-08-28T08:32:00.755Z,97
2022-08-28T08:42:00.657Z,97
2022-08-28T08:52:00.771Z,97
2022-08-28T09:02:00.661Z,97
2022-08-28T09:12:00.753Z,97
2022-08-28T09:22:00.863Z,97
2022-08-28T09:32:00.862Z,97
2022-08-28T09:42:00.793Z,97
2022-08-28T09:52:00.850Z,97
2022-08-28T10:02:00.822Z,97
2022-08-28T10:12:00.841Z,97
2022-08-28T10:22:00.740Z,97
2022-08-28T10:32:00.845Z,97
2022-08-28T10:42:00.943Z,97
2022-08-28T10:52:00.838Z,97
2022-08-28T11:02:01.201Z,97
2022-08-28T11:12:02.162Z,97
2022-08-28T11:22:00.957Z,97
2022-08-28T11:32:00.872Z,97
2022-08-28T11:42:00.815Z,97
2022-08-28T11:52:00.944Z,97
2022-08-28T12:02:01.686Z,97
2022-08-28T12:12:01.794Z,97
2022-08-28T12:22:01.034Z,97
2022-08-28T12:32:01.646Z,97
2022-08-28T12:42:01.031Z,97
2022-08-28T12:52:00.947Z,97
2022-08-28T13:02:01.096Z,97
2022-08-28T13:12:00.937Z,97
2022-08-28T13:22:01.012Z,97
2022-08-28T13:32:00.911Z,97
2022-08-28T13:42:01.192Z,97
2022-08-28T13:52:01.000Z,97
2022-08-28T14:02:01.099Z,97
2022-08-28T14:12:01.149Z,97
2022-08-28T14:22:02.185Z,97
2022-08-28T14:32:01.234Z,97
2022-08-28T14:42:01.215Z,97
2022-08-28T14:52:01.132Z,96
2022-08-28T15:02:01.037Z,95
2022-08-28T15:12:01.138Z,94
2022-08-28T15:22:01.058Z,93
2022-08-28T15:32:01.236Z,92
2022-08-28T15:42:01.695Z,91
2022-08-28T15:52:01.691Z,90
2022-08-28T16:02:02.212Z,88
2022-08-28T16:12:02.415Z,88
2022-08-28T16:22:01.492Z,86
2022-08-28T16:32:02.600Z,85
2022-08-28T16:42:02.135Z,84
2022-08-28T16:52:01.953Z,83
2022-08-28T17:02:01.221Z,82
2022-08-28T17:12:01.240Z,81
2022-08-28T17:22:01.338Z,81
2022-08-28T17:32:01.263Z,78
2022-08-28T17:42:01.356Z,74
2022-08-28T17:52:01.238Z,72
2022-08-28T18:02:01.439Z,72
2022-08-28T18:12:01.232Z,74
2022-08-28T18:22:01.355Z,73
2022-08-28T18:32:01.238Z,73
2022-08-28T18:42:01.329Z,70
2022-08-28T18:52:01.419Z,61
2022-08-28T19:02:01.378Z,44
2022-08-28T19:12:01.439Z,25
2022-08-28T19:22:01.319Z,21
2022-08-28T19:32:01.567Z,13
2022-08-28T19:42:01.310Z,3
2022-08-28T19:52:01.435Z,2
2022-08-28T20:02:02.172Z,2
2022-08-28T20:12:01.457Z,2
2022-08-28T20:22:01.353Z,2
2022-08-28T20:32:01.457Z,2
2022-08-28T20:42:01.378Z,2
2022-08-28T20:52:01.464Z,2
2022-08-28T21:02:01.557Z,2
2022-08-28T21:12:01.447Z,2
2022-08-28T21:22:01.552Z,2
2022-08-28T21:32:01.450Z,2
2022-08-28T21:42:01.580Z,2
2022-08-28T21:52:01.444Z,2
2022-08-28T22:02:01.584Z,2
2022-08-28T22:12:01.465Z,2
2022-08-28T22:22:01.545Z,2
2022-08-28T22:32:01.690Z,2
2022-08-28T22:42:01.537Z,2
2022-08-28T22:52:01.637Z,2
2022-08-28T23:02:01.543Z,2
2022-08-28T23:12:01.651Z,2
2022-08-28T23:22:01.540Z,2
2022-08-28T23:32:01.679Z,2
2022-08-28T23:42:01.724Z,2
2022-08-28T23:52:01.631Z,2
